Time;durP1;ratioP1;P1;durP2;ratioP2;P2;SDS_P1;SDS_P2;PMS_P1;PMS_P2;Temp;Humidity;BMP_temperature;BMP_pressure;BME280_temperature;BME280_humidity;BME280_pressure;Samples;Min_cycle;Max_cycle;Signal;HPM_P1;HPM_P2
2023/02/11 00:02:16;;;;;;;64.10;27.20;;;;;;;2.87;85.03;100410.90;135570;1279;22535;-62
2023/02/11 00:05:18;;;;;;;67.60;26.70;;;;;;;2.89;84.73;100409.15;135524;1279;22612;-66
2023/02/11 00:08:20;;;;;;;72.20;30.80;;;;;;;2.87;84.76;100416.60;135582;1279;23892;-62
2023/02/11 00:11:24;;;;;;;65.30;28.20;;;;;;;2.80;84.60;100407.13;135611;1279;25242;-62
2023/02/11 00:14:26;;;;;;;70.80;30.60;;;;;;;2.73;85.06;100404.39;135580;1279;23917;-61
2023/02/11 00:17:29;;;;;;;72.60;29.50;;;;;;;2.66;85.41;100403.02;135627;1262;22776;-62
2023/02/11 00:20:31;;;;;;;72.10;29.60;;;;;;;2.66;85.58;100400.42;135627;1279;22543;-64
2023/02/11 00:23:33;;;;;;;70.30;29.30;;;;;;;2.71;85.14;100395.58;135560;1279;22556;-60
2023/02/11 00:26:36;;;;;;;69.90;30.10;;;;;;;2.71;84.89;100394.20;135594;1261;24199;-62
2023/02/11 00:29:38;;;;;;;;;;;;;;;2.66;85.06;100395.60;135590;1279;22666;-62
2023/02/11 00:32:41;;;;;;;82.50;33.40;;;;;;;2.66;84.99;100395.94;135582;1279;22565;-60
2023/02/11 00:35:43;;;;;;;;;;;;;;;2.63;85.36;100387.33;135582;1279;22517;-65
2023/02/11 00:38:46;;;;;;;75.40;32.90;;;;;;;2.61;85.41;100383.52;135591;1279;25425;-61
2023/02/11 00:41:48;;;;;;;81.60;34.70;;;;;;;2.59;85.42;100374.21;135618;1279;22563;-63
2023/02/11 00:44:51;;;;;;;80.40;34.40;;;;;;;2.60;85.63;100366.43;135605;1279;22532;-63
2023/02/11 00:47:53;;;;;;;77.90;34.50;;;;;;;2.60;85.99;100360.73;135619;1279;22843;-61
2023/02/11 00:50:55;;;;;;;76.90;33.80;;;;;;;2.56;85.91;100346.77;135579;1279;24386;-61
2023/02/11 00:53:58;;;;;;;81.20;34.70;;;;;;;2.53;85.56;100339.87;135589;1279;22562;-61
2023/02/11 00:57:00;;;;;;;;;;;;;;;2.42;85.61;100324.54;135585;1279;22525;-64
2023/02/11 01:00:03;;;;;;;81.50;34.70;;;;;;;2.32;85.66;100318.52;135584;1279;22535;-62
2023/02/11 01:03:05;;;;;;;82.90;35.50;;;;;;;2.19;85.78;100319.95;135632;1279;22548;-62
2023/02/11 01:06:08;;;;;;;86.40;36.10;;;;;;;2.10;85.34;100318.94;135556;1279;23016;-62
2023/02/11 01:09:10;;;;;;;82.80;37.30;;;;;;;1.96;85.56;100318.11;135542;1279;22549;-62
2023/02/11 01:12:12;;;;;;;85.70;37.70;;;;;;;1.87;85.44;100318.29;135589;1279;22535;-63
2023/02/11 01:15:15;;;;;;;86.30;37.40;;;;;;;1.76;85.90;100324.52;135541;1260;22523;-61
2023/02/11 01:18:17;;;;;;;80.90;36.10;;;;;;;1.72;86.14;100322.27;135482;1279;24214;-61
2023/02/11 01:21:20;;;;;;;88.00;39.30;;;;;;;1.67;86.32;100323.31;135527;1279;22547;-60
2023/02/11 01:24:22;;;;;;;88.00;37.50;;;;;;;1.55;86.90;100321.77;135512;1279;25420;-61
2023/02/11 01:27:24;;;;;;;85.50;39.90;;;;;;;1.48;87.17;100317.81;135581;1279;22551;-61
2023/02/11 01:30:27;;;;;;;82.90;38.00;;;;;;;1.46;87.46;100315.05;135561;1279;22546;-62
2023/02/11 01:33:29;;;;;;;83.20;37.80;;;;;;;1.43;87.16;100317.28;135550;1263;22571;-62
2023/02/11 01:36:32;;;;;;;98.00;42.50;;;;;;;1.35;87.35;100322.10;135554;1262;24196;-63
2023/02/11 01:39:34;;;;;;;94.50;39.40;;;;;;;1.35;87.32;100324.34;135532;1279;22559;-65
2023/02/11 01:42:36;;;;;;;;;;;;;;;1.36;87.31;100312.11;135526;1279;22512;-64
2023/02/11 01:45:39;;;;;;;96.30;40.20;;;;;;;1.44;87.00;100306.77;135591;1279;22548;-62
2023/02/11 01:48:41;;;;;;;91.10;39.90;;;;;;;1.48;87.04;100302.98;135577;1279;25327;-65
2023/02/11 01:51:44;;;;;;;90.90;39.50;;;;;;;1.56;86.69;100292.11;135603;1279;22532;-66
2023/02/11 01:58:06;;;;;;;93.70;40.90;;;;;;;1.53;86.53;100276.60;135593;1279;22543;-61
2023/02/11 02:01:08;;;;;;;92.90;41.40;;;;;;;1.53;86.51;100266.94;135611;1279;25422;-62
2023/02/11 02:04:11;;;;;;;94.70;39.60;;;;;;;1.56;86.39;100249.34;135517;1279;22554;-62
2023/02/11 02:07:14;;;;;;;87.00;40.10;;;;;;;1.51;86.43;100237.80;135571;1262;22547;-62
2023/02/11 02:10:16;;;;;;;84.30;37.60;;;;;;;1.46;86.46;100231.78;135570;1279;24201;-62
2023/02/11 02:13:19;;;;;;;96.40;40.90;;;;;;;1.39;86.66;100230.05;135585;1279;22535;-62
2023/02/11 02:16:21;;;;;;;86.20;39.10;;;;;;;1.36;87.16;100225.93;135566;1279;22545;-63
2023/02/11 02:19:24;;;;;;;85.60;36.50;;;;;;;1.37;86.85;100215.40;135589;1279;22529;-64
2023/02/11 02:22:26;;;;;;;86.10;36.80;;;;;;;1.39;86.94;100209.38;135595;1279;22554;-66
2023/02/11 02:25:28;;;;;;;89.90;36.20;;;;;;;1.43;86.86;100206.27;135577;1279;22550;-66
2023/02/11 02:28:31;;;;;;;82.80;37.10;;;;;;;1.40;86.82;100189.55;135579;1279;25352;-62
2023/02/11 02:31:33;;;;;;;89.70;36.60;;;;;;;1.40;86.64;100182.66;135562;1279;24362;-63
2023/02/11 02:34:36;;;;;;;86.00;37.00;;;;;;;1.34;86.65;100170.77;135579;1279;22539;-61
2023/02/11 02:37:38;;;;;;;78.40;35.70;;;;;;;1.33;86.75;100164.23;135569;1279;22707;-64
2023/02/11 02:40:40;;;;;;;83.30;35.80;;;;;;;1.30;86.93;100161.13;135579;1279;23901;-63
2023/02/11 02:43:43;;;;;;;79.90;36.80;;;;;;;1.26;87.18;100158.73;135424;1279;176667;-64
2023/02/11 02:46:45;;;;;;;81.90;35.90;;;;;;;1.31;86.89;100145.79;135591;1279;22544;-65
2023/02/11 02:49:48;;;;;;;81.60;36.10;;;;;;;1.28;87.22;100147.00;135529;1279;25426;-62
2023/02/11 02:52:50;;;;;;;83.60;37.20;;;;;;;1.32;87.12;100145.79;135588;1279;22542;-64
2023/02/11 02:55:53;;;;;;;79.70;34.70;;;;;;;1.33;87.43;100142.16;135534;1279;22570;-62
2023/02/11 02:58:55;;;;;;;85.10;36.80;;;;;;;1.23;88.33;100136.66;135529;1279;22574;-62
2023/02/11 03:01:58;;;;;;;88.90;37.20;;;;;;;1.19;88.56;100135.13;135545;1279;22562;-61
2023/02/11 03:05:00;;;;;;;83.20;36.60;;;;;;;1.27;88.41;100130.81;135550;1279;22532;-62
2023/02/11 03:08:04;;;;;;;79.10;34.90;;;;;;;1.35;87.75;100133.02;135587;1279;22645;-62
2023/02/11 03:11:06;;;;;;;84.00;36.40;;;;;;;1.29;87.97;100125.63;135578;1279;22560;-62
2023/02/11 03:14:09;;;;;;;83.90;33.90;;;;;;;1.24;88.59;100128.05;135556;1279;22584;-61
2023/02/11 03:17:11;;;;;;;84.80;37.00;;;;;;;1.26;88.62;100116.32;135562;1279;24255;-62
2023/02/11 03:20:14;;;;;;;76.50;34.00;;;;;;;1.31;88.47;100105.12;135538;1279;24186;-62
2023/02/11 03:23:16;;;;;;;85.80;35.70;;;;;;;1.28;88.52;100101.00;135596;1279;22554;-61
2023/02/11 03:26:18;;;;;;;81.30;35.10;;;;;;;1.20;89.02;100088.27;135564;1279;22596;-59
2023/02/11 03:29:21;;;;;;;84.50;35.40;;;;;;;1.18;89.61;100083.61;135586;1279;24734;-61
2023/02/11 03:32:23;;;;;;;79.70;34.00;;;;;;;1.15;89.94;100083.95;135570;1279;22568;-63
2023/02/11 03:35:26;;;;;;;81.00;33.80;;;;;;;1.20;89.96;100077.57;135593;1279;22550;-60
2023/02/11 03:38:28;;;;;;;;;;;;;;;1.21;89.88;100064.30;135622;1279;22517;-63
2023/02/11 03:41:30;;;;;;;82.20;35.00;;;;;;;1.22;89.73;100057.05;135583;1279;22578;-62
2023/02/11 03:44:33;;;;;;;80.40;34.40;;;;;;;1.14;89.90;100055.54;135622;1279;22550;-61
2023/02/11 03:47:35;;;;;;;78.90;33.50;;;;;;;1.13;90.31;100059.50;135582;1279;22553;-64
2023/02/11 03:50:38;;;;;;;81.40;34.20;;;;;;;1.16;90.12;100052.26;135559;1279;22547;-62
2023/02/11 03:53:40;;;;;;;80.40;33.30;;;;;;;1.17;90.23;100050.01;135573;1279;22556;-62
2023/02/11 03:56:44;;;;;;;78.00;34.20;;;;;;;1.20;90.19;100047.92;135534;1279;22687;-60
2023/02/11 03:59:47;;;;;;;80.80;35.30;;;;;;;1.25;89.81;100063.95;135570;1279;22536;-62
2023/02/11 04:02:49;;;;;;;77.70;35.40;;;;;;;1.33;89.42;100072.19;135601;1279;22543;-65
2023/02/11 04:05:52;;;;;;;;;;;;;;;1.37;88.81;100069.77;135588;1279;24273;-62
2023/02/11 04:08:54;;;;;;;84.30;34.60;;;;;;;1.41;88.56;100071.65;135597;1274;22559;-62
2023/02/11 04:11:57;;;;;;;76.20;31.50;;;;;;;1.48;87.98;100074.89;135542;1279;22578;-62
2023/02/11 04:14:59;;;;;;;76.80;34.00;;;;;;;1.50;88.03;100069.36;135566;1279;22645;-62
2023/02/11 04:18:02;;;;;;;76.60;32.30;;;;;;;1.51;87.95;100074.02;135563;1279;22571;-62
2023/02/11 04:21:04;;;;;;;75.20;31.80;;;;;;;1.51;88.20;100086.95;135593;1279;22545;-62
2023/02/11 04:24:07;;;;;;;70.60;31.20;;;;;;;1.52;87.97;100097.46;135646;1279;24091;-62
2023/02/11 04:27:09;;;;;;;75.90;31.80;;;;;;;1.47;88.42;100098.85;135588;1279;22529;-64
2023/02/11 04:30:12;;;;;;;73.20;31.70;;;;;;;1.45;88.46;100101.11;135562;1279;22547;-64
2023/02/11 04:33:14;;;;;;;73.50;31.70;;;;;;;1.48;88.33;100103.00;135546;1275;22586;-63
2023/02/11 04:36:16;;;;;;;78.70;32.70;;;;;;;1.27;89.91;100094.61;135544;1279;24218;-62
2023/02/11 04:39:19;;;;;;;75.90;31.40;;;;;;;1.28;90.54;100055.83;135505;1256;22552;-62
2023/02/11 04:42:21;;;;;;;72.60;32.10;;;;;;;1.30;90.28;100014.64;135530;1279;22748;-60
2023/02/11 04:45:24;;;;;;;;;;;;;;;1.28;90.18;100013.43;135542;1279;22540;-61
2023/02/11 04:48:26;;;;;;;66.70;28.30;;;;;;;1.31;89.83;99955.86;135498;1279;22566;-61
2023/02/11 04:51:28;;;;;;;70.10;33.00;;;;;;;1.36;89.91;99941.71;135593;1279;22536;-61
2023/02/11 04:54:31;;;;;;;74.70;31.30;;;;;;;1.37;89.62;99949.98;135588;1262;22560;-63
2023/02/11 04:57:33;;;;;;;71.60;29.70;;;;;;;1.38;89.10;99966.86;135549;1279;22646;-64
2023/02/11 05:00:36;;;;;;;72.90;30.60;;;;;;;1.41;88.97;99961.50;135569;1262;24216;-64
2023/02/11 05:03:38;;;;;;;62.00;28.30;;;;;;;1.41;89.01;99957.20;135551;1279;22537;-60
2023/02/11 05:06:40;;;;;;;68.00;28.10;;;;;;;1.35;89.09;99949.45;135612;1279;22631;-61
2023/02/11 05:09:43;;;;;;;62.80;27.80;;;;;;;1.45;88.26;99946.66;135541;1279;26498;-61
2023/02/11 05:12:45;;;;;;;64.30;27.90;;;;;;;1.37;88.33;99961.52;135561;1279;22546;-62
2023/02/11 05:15:47;;;;;;;68.80;29.30;;;;;;;1.34;87.92;99959.81;135586;1279;22592;-62
2023/02/11 05:18:50;;;;;;;68.60;29.40;;;;;;;1.29;87.82;99951.91;135573;1279;22544;-61
2023/02/11 05:21:52;;;;;;;63.50;28.10;;;;;;;1.20;88.38;99945.23;135578;1279;22576;-61
2023/02/11 05:24:55;;;;;;;72.50;30.20;;;;;;;1.18;88.25;99948.01;135584;1279;22532;-60
2023/02/11 05:27:57;;;;;;;62.00;27.10;;;;;;;1.27;87.67;99957.10;135584;1279;25536;-62
2023/02/11 05:30:59;;;;;;;67.70;27.90;;;;;;;1.16;88.17;99963.52;135604;1279;22560;-61
2023/02/11 05:34:03;;;;;;;74.10;30.80;;;;;;;1.10;88.63;99954.41;135543;1257;22556;-61
2023/02/11 05:37:05;;;;;;;67.80;30.90;;;;;;;1.08;88.74;99930.30;135605;1279;22614;-64
2023/02/11 05:40:08;;;;;;;66.90;30.10;;;;;;;1.08;88.62;99922.39;135571;1279;25598;-63
2023/02/11 05:43:10;;;;;;;69.50;31.30;;;;;;;1.02;88.60;99918.80;135538;1256;22545;-62
2023/02/11 05:46:12;;;;;;;68.40;30.50;;;;;;;0.96;88.73;99916.75;135584;1279;22543;-61
2023/02/11 05:49:15;;;;;;;64.50;29.20;;;;;;;0.97;88.41;99913.48;135549;1263;22535;-62
2023/02/11 05:52:17;;;;;;;68.90;31.10;;;;;;;0.92;88.61;99915.55;135548;1279;22542;-63
2023/02/11 05:55:20;;;;;;;77.50;30.50;;;;;;;0.90;88.95;99926.60;135570;1279;26674;-61
2023/02/11 05:58:22;;;;;;;;;;;;;;;0.94;88.53;99940.88;135555;1262;22523;-61
2023/02/11 06:01:24;;;;;;;71.50;30.50;;;;;;;0.97;87.94;99938.96;135581;1279;22548;-61
2023/02/11 06:04:27;;;;;;;67.80;29.50;;;;;;;1.03;87.31;99938.59;135628;1279;22539;-60
2023/02/11 06:07:29;;;;;;;76.30;32.00;;;;;;;1.06;86.87;99942.72;135559;1279;22541;-61
2023/02/11 06:10:32;;;;;;;85.40;36.70;;;;;;;0.95;86.97;99946.55;135564;1279;22492;-62
2023/02/11 06:13:34;;;;;;;;;;;;;;;0.83;87.62;99941.77;135594;1279;22544;-63
2023/02/11 06:16:36;;;;;;;81.10;35.90;;;;;;;0.73;88.35;99938.36;135553;1279;22539;-61
2023/02/11 06:19:39;;;;;;;80.60;35.50;;;;;;;0.67;89.06;99944.39;135618;1279;22536;-64
2023/02/11 06:22:41;;;;;;;80.90;35.80;;;;;;;0.71;89.16;99948.02;135603;1279;22603;-63
2023/02/11 06:25:44;;;;;;;75.30;33.20;;;;;;;0.78;88.99;99945.23;135581;1279;22542;-62
2023/02/11 06:28:46;;;;;;;96.20;38.80;;;;;;;0.86;88.45;99947.10;135596;1279;22634;-63
2023/02/11 06:31:48;;;;;;;93.50;37.90;;;;;;;0.94;88.25;99943.45;135526;1279;23584;-64
2023/02/11 06:34:51;;;;;;;;;;;;;;;1.02;87.86;99942.39;135619;1262;22542;-64
2023/02/11 06:37:53;;;;;;;76.40;32.90;;;;;;;1.13;87.10;99940.10;135575;1262;22533;-62
2023/02/11 06:40:56;;;;;;;112.70;42.10;;;;;;;1.17;86.58;99937.33;135564;1279;22542;-61
2023/02/11 06:43:58;;;;;;;85.30;35.30;;;;;;;1.21;86.24;99937.13;135591;1279;22568;-62
2023/02/11 06:47:00;;;;;;;;;;;;;;;1.27;85.40;99928.48;135585;1279;22724;-63
2023/02/11 06:50:03;;;;;;;84.20;34.10;;;;;;;1.19;85.65;99921.46;135544;1279;22554;-62
2023/02/11 06:53:05;;;;;;;67.90;30.10;;;;;;;1.16;85.52;99925.79;135537;1279;22525;-62
2023/02/11 06:56:08;;;;;;;82.00;33.90;;;;;;;1.14;85.45;99921.67;135542;1279;25360;-60
2023/02/11 06:59:10;;;;;;;76.70;32.30;;;;;;;1.20;85.58;99919.39;135557;1262;25577;-64
2023/02/11 07:02:13;;;;;;;79.70;33.10;;;;;;;1.26;85.69;99917.13;135557;1279;22540;-61
2023/02/11 07:05:15;;;;;;;82.50;35.30;;;;;;;1.28;85.41;99913.83;135564;1279;22535;-61
2023/02/11 07:08:18;;;;;;;77.30;33.40;;;;;;;1.31;85.17;99903.83;135544;1279;22532;-64
2023/02/11 07:11:23;;;;;;;72.60;31.90;;;;;;;1.32;84.89;99901.05;135628;1265;22544;-62
2023/02/11 07:14:25;;;;;;;72.00;30.90;;;;;;;1.30;84.90;99894.85;135572;1279;22559;-64
2023/02/11 07:17:28;;;;;;;81.50;34.40;;;;;;;1.39;84.64;99891.53;135572;1270;22533;-62
2023/02/11 07:20:30;;;;;;;85.80;34.70;;;;;;;1.50;84.03;99878.02;135527;1279;22545;-60
2023/02/11 07:23:33;;;;;;;89.10;35.50;;;;;;;1.60;83.39;99881.73;135572;1264;22552;-61
2023/02/11 07:26:35;;;;;;;67.60;30.20;;;;;;;1.78;83.55;99871.41;135596;1279;22550;-60
2023/02/11 07:29:37;;;;;;;71.90;32.20;;;;;;;1.86;82.77;99867.38;135600;1279;22532;-61
2023/02/11 07:32:40;;;;;;;73.70;33.00;;;;;;;1.88;81.70;99864.60;135527;1279;22544;-62
2023/02/11 07:35:43;;;;;;;64.10;30.10;;;;;;;2.08;82.21;99860.80;135574;1261;22540;-62
2023/02/11 07:38:46;;;;;;;70.50;31.40;;;;;;;2.37;81.22;99863.79;135579;1279;24358;-62
2023/02/11 07:41:48;;;;;;;71.80;31.70;;;;;;;2.49;80.29;99864.86;135580;1279;22569;-63
2023/02/11 07:44:50;;;;;;;66.30;30.30;;;;;;;2.45;80.33;99857.31;135586;1279;22539;-61
2023/02/11 07:47:53;;;;;;;66.50;29.40;;;;;;;2.46;79.89;99858.35;135578;1279;22557;-60
2023/02/11 07:50:55;;;;;;;69.20;31.60;;;;;;;2.55;79.40;99855.63;135581;1279;22566;-62
2023/02/11 07:53:58;;;;;;;;;;;;;;;2.60;79.48;99852.81;135551;1265;22511;-62
2023/02/11 07:57:00;;;;;;;63.30;28.50;;;;;;;2.64;79.11;99850.70;135577;1279;22537;-61
2023/02/11 08:00:03;;;;;;;69.00;29.20;;;;;;;2.65;79.80;99850.52;135586;1279;25425;-62
2023/02/11 08:03:07;;;;;;;73.50;30.80;;;;;;;2.68;79.32;99847.70;135534;1279;22537;-60
2023/02/11 08:06:09;;;;;;;68.50;30.80;;;;;;;2.82;78.94;99838.89;135528;1279;22540;-60
2023/02/11 08:09:12;;;;;;;69.70;31.60;;;;;;;2.93;78.21;99832.02;135512;1279;22546;-60
2023/02/11 08:12:14;;;;;;;59.80;28.80;;;;;;;2.93;77.68;99823.02;135524;1279;24218;-62
2023/02/11 08:15:16;;;;;;;65.10;29.40;;;;;;;3.02;78.20;99822.90;135603;1279;22562;-62
2023/02/11 08:18:19;;;;;;;63.90;29.30;;;;;;;3.13;77.44;99809.45;135531;1279;22547;-63
2023/02/11 08:21:21;;;;;;;;;;;;;;;3.14;77.09;99819.45;135533;1279;22516;-62
2023/02/11 08:24:24;;;;;;;58.20;27.40;;;;;;;3.18;76.49;99814.20;135604;1269;22536;-61
2023/02/11 08:27:26;;;;;;;61.30;26.60;;;;;;;3.20;77.07;99806.91;135537;1279;24218;-63
2023/02/11 08:30:28;;;;;;;60.70;28.00;;;;;;;3.48;76.19;99801.28;135659;1269;22540;-63
2023/02/11 08:33:31;;;;;;;65.50;30.20;;;;;;;3.53;74.58;99812.45;135590;1279;22533;-65
2023/02/11 08:36:34;;;;;;;66.00;29.00;;;;;;;3.62;74.57;99794.84;135524;1279;22603;-62
2023/02/11 08:39:36;;;;;;;70.80;30.00;;;;;;;3.76;74.07;99793.73;135544;1279;22683;-62
2023/02/11 08:42:39;;;;;;;57.90;27.20;;;;;;;3.93;73.47;99797.05;135600;1279;22537;-62
2023/02/11 08:45:41;;;;;;;60.40;28.80;;;;;;;3.98;73.18;99790.05;135545;1279;22566;-62
2023/02/11 08:48:43;;;;;;;58.60;25.90;;;;;;;4.05;73.07;99801.68;135622;1279;23110;-63
2023/02/11 08:51:46;;;;;;;61.60;28.10;;;;;;;4.10;73.20;99809.73;135603;1279;25610;-65
2023/02/11 08:54:49;;;;;;;58.90;25.90;;;;;;;4.07;72.23;99812.54;135565;1279;22546;-62
2023/02/11 09:01:29;;;;;;;63.50;29.40;;;;;;;3.88;72.88;99825.17;135555;1279;22573;-64
2023/02/11 09:04:32;;;;;;;54.80;24.10;;;;;;;3.84;74.22;99817.45;135588;1279;22550;-63
2023/02/11 09:07:34;;;;;;;49.90;21.10;;;;;;;3.83;74.80;99812.46;135561;1279;22587;-62
2023/02/11 09:10:37;;;;;;;55.70;23.30;;;;;;;3.96;75.01;99807.75;135548;1279;22547;-64
2023/02/11 09:13:39;;;;;;;50.80;23.00;;;;;;;4.09;74.94;99813.89;135577;1279;22554;-62
2023/02/11 09:16:41;;;;;;;56.10;23.30;;;;;;;4.07;74.73;99812.88;135557;1279;22546;-64
2023/02/11 09:19:44;;;;;;;;;;;;;;;4.13;74.99;99811.22;135569;1279;25428;-62
2023/02/11 09:22:46;;;;;;;51.30;22.30;;;;;;;4.20;75.22;99813.16;135568;1279;22063;-63
2023/02/11 09:25:49;;;;;;;49.60;22.10;;;;;;;4.60;73.11;99815.69;135557;1279;22538;-62
2023/02/11 09:28:51;;;;;;;54.00;24.40;;;;;;;4.73;72.18;99833.59;135566;1264;22537;-62
2023/02/11 09:31:54;;;;;;;50.70;22.40;;;;;;;4.60;72.87;99836.98;135602;1279;24242;-62
2023/02/11 09:34:57;;;;;;;55.40;24.80;;;;;;;4.66;72.23;99835.83;135604;1279;22579;-62
2023/02/11 09:37:59;;;;;;;44.10;19.90;;;;;;;4.54;73.62;99829.48;135591;1279;22566;-61
2023/02/11 09:41:06;;;;;;;54.40;24.40;;;;;;;4.43;74.68;99830.74;135575;1269;22592;-59
2023/02/11 09:44:09;;;;;;;57.80;24.50;;;;;;;4.49;75.60;99833.91;135603;1279;22542;-62
2023/02/11 09:47:11;;;;;;;56.50;24.70;;;;;;;4.50;75.99;99832.16;135595;1279;22547;-63
2023/02/11 09:50:14;;;;;;;51.40;22.40;;;;;;;4.50;76.60;99820.02;135598;1279;22654;-63
2023/02/11 09:53:16;;;;;;;49.40;22.80;;;;;;;4.47;76.81;99814.38;135594;1279;22543;-66
2023/02/11 09:56:19;;;;;;;51.90;22.70;;;;;;;4.45;77.64;99806.81;135569;1279;22557;-64
2023/02/11 09:59:21;;;;;;;56.80;23.70;;;;;;;4.55;77.85;99784.25;135609;1265;22785;-62
2023/02/11 10:02:24;;;;;;;51.80;23.70;;;;;;;4.69;77.48;99766.45;135592;1279;22592;-63
2023/02/11 10:05:26;;;;;;;51.50;23.30;;;;;;;4.71;77.40;99739.73;135582;1279;22560;-63
2023/02/11 10:08:29;;;;;;;54.20;25.30;;;;;;;4.94;76.56;99739.38;135597;1279;22574;-63
2023/02/11 10:11:31;;;;;;;49.30;23.20;;;;;;;5.17;75.96;99730.86;135575;1279;22551;-61
2023/02/11 10:14:34;;;;;;;55.00;23.60;;;;;;;5.01;75.94;99724.80;135565;1279;22543;-63
2023/02/11 10:17:36;;;;;;;51.60;23.30;;;;;;;4.95;76.69;99706.23;135595;1269;22532;-64
2023/02/11 10:20:39;;;;;;;50.90;23.40;;;;;;;4.92;77.36;99711.86;135623;1260;23244;-62
2023/02/11 10:23:41;;;;;;;54.90;24.40;;;;;;;4.92;77.56;99683.59;135588;1279;22553;-63
2023/02/11 10:26:44;;;;;;;50.20;22.10;;;;;;;5.00;78.04;99693.30;135554;1279;22542;-62
2023/02/11 10:29:46;;;;;;;50.80;24.30;;;;;;;5.08;77.41;99696.40;135629;1279;25680;-62
2023/02/11 10:32:49;;;;;;;58.70;26.00;;;;;;;5.16;77.99;99690.30;135614;1279;22566;-65
2023/02/11 10:35:52;;;;;;;53.00;23.20;;;;;;;5.25;77.75;99683.67;135617;1279;22544;-62
2023/02/11 10:38:54;;;;;;;51.30;21.00;;;;;;;5.20;78.46;99676.85;135584;1279;22552;-62
2023/02/11 10:41:56;;;;;;;58.60;26.10;;;;;;;5.12;78.84;99668.90;135629;1279;22592;-62
2023/02/11 10:44:59;;;;;;;50.10;21.80;;;;;;;5.15;79.02;99652.70;135604;1279;22652;-62
2023/02/11 10:48:01;;;;;;;46.90;21.80;;;;;;;4.94;79.74;99663.28;135601;1265;22574;-63
2023/02/11 10:51:04;;;;;;;51.90;22.20;;;;;;;4.74;80.74;99674.86;135627;1279;22561;-63
2023/02/11 10:54:07;;;;;;;48.40;22.50;;;;;;;4.81;80.97;99661.70;135564;1279;22539;-62
2023/02/11 10:57:09;;;;;;;54.90;23.10;;;;;;;4.87;80.42;99658.95;135602;1279;22559;-62
2023/02/11 11:00:12;;;;;;;48.00;20.20;;;;;;;4.88;80.58;99652.00;135580;1279;22584;-62
2023/02/11 11:03:14;;;;;;;50.50;22.20;;;;;;;4.82;80.92;99645.02;135613;1279;22548;-62
2023/02/11 11:06:16;;;;;;;49.70;23.10;;;;;;;4.84;81.14;99671.50;135580;1279;22539;-62
2023/02/11 11:09:19;;;;;;;50.20;22.20;;;;;;;4.81;81.67;99677.82;135571;1279;24230;-62
2023/02/11 11:12:21;;;;;;;49.60;21.20;;;;;;;4.54;85.69;99690.38;135598;1279;22550;-62
2023/02/11 11:15:24;;;;;;;52.40;22.30;;;;;;;4.42;88.41;99682.16;135635;1279;22542;-62
2023/02/11 11:18:26;;;;;;;46.60;19.20;;;;;;;4.37;90.76;99682.61;135567;1279;22598;-63
2023/02/11 11:21:28;;;;;;;51.40;23.70;;;;;;;4.37;91.78;99670.32;135578;1279;25472;-63
2023/02/11 11:24:32;;;;;;;49.10;20.60;;;;;;;4.42;91.60;99649.42;135550;1279;22565;-64
2023/02/11 11:27:35;;;;;;;51.50;23.50;;;;;;;4.44;90.74;99666.52;135579;1279;22564;-62
2023/02/11 11:30:38;;;;;;;52.70;22.80;;;;;;;4.51;90.11;99641.09;135508;1279;22616;-61
2023/02/11 11:33:40;;;;;;;54.10;21.70;;;;;;;4.55;89.45;99653.48;135590;1260;22544;-61
2023/02/11 11:36:43;;;;;;;52.70;21.90;;;;;;;4.55;89.19;99640.48;135506;1279;22536;-62
2023/02/11 11:39:45;;;;;;;53.40;23.70;;;;;;;4.52;89.54;99676.05;135593;1279;22535;-62
2023/02/11 11:42:49;;;;;;;54.60;23.20;;;;;;;4.54;89.74;99668.39;135579;1279;22529;-64
2023/02/11 11:45:51;;;;;;;46.30;19.20;;;;;;;4.59;89.12;99656.50;135603;1279;22599;-61
2023/02/11 11:48:54;;;;;;;48.50;23.10;;;;;;;4.51;90.12;99642.84;135556;1279;24093;-61
2023/02/11 11:51:56;;;;;;;55.40;24.10;;;;;;;4.53;89.63;99650.74;135580;1279;22578;-61
2023/02/11 11:54:59;;;;;;;51.00;22.20;;;;;;;4.42;90.43;99639.73;135562;1255;22768;-60
2023/02/11 11:58:02;;;;;;;49.80;22.30;;;;;;;4.40;91.32;99637.19;135597;1279;22529;-61
2023/02/11 12:01:04;;;;;;;;;;;;;;;4.45;90.89;99648.84;135604;1279;22525;-61
2023/02/11 12:04:09;;;;;;;51.50;23.80;;;;;;;4.47;90.98;99654.52;135588;1279;22536;-62
2023/02/11 12:07:11;;;;;;;50.20;22.40;;;;;;;4.29;93.83;99676.73;135506;1279;24059;-62
2023/02/11 12:10:14;;;;;;;49.60;20.20;;;;;;;4.33;94.51;99651.88;135622;1279;22547;-63
2023/02/11 12:13:17;;;;;;;53.40;21.50;;;;;;;4.34;95.79;99644.73;135565;1279;24236;-62
2023/02/11 12:16:19;;;;;;;50.90;20.40;;;;;;;4.37;97.51;99634.12;135599;1279;22732;-64
2023/02/11 12:19:23;;;;;;;53.50;22.50;;;;;;;4.40;97.96;99598.55;135591;1279;25352;-61
2023/02/11 12:22:25;;;;;;;51.30;23.10;;;;;;;4.39;99.88;99603.59;135605;1279;22634;-62
2023/02/11 12:25:28;;;;;;;58.30;25.70;;;;;;;4.39;100.00;99613.14;135574;1279;22566;-63
2023/02/11 12:28:30;;;;;;;59.30;25.60;;;;;;;4.38;100.00;99621.81;135557;1279;22545;-63
2023/02/11 12:31:34;;;;;;;47.70;20.10;;;;;;;4.32;100.00;99611.73;135514;1279;22546;-65
2023/02/11 12:34:36;;;;;;;56.30;26.40;;;;;;;4.24;100.00;99594.92;135538;1279;22544;-63
2023/02/11 12:37:40;;;;;;;56.00;24.50;;;;;;;4.24;100.00;99587.34;135538;1270;22547;-64
2023/02/11 12:40:42;;;;;;;55.90;23.40;;;;;;;4.22;100.00;99554.32;135588;1279;22692;-62
2023/02/11 12:43:45;;;;;;;56.00;23.50;;;;;;;4.27;100.00;99532.02;135570;1279;24468;-62
2023/02/11 12:46:48;;;;;;;53.80;22.10;;;;;;;4.38;100.00;99523.79;135583;1279;22546;-65
2023/02/11 12:49:52;;;;;;;54.10;24.00;;;;;;;4.39;100.00;99541.26;135618;1279;22563;-65
2023/02/11 12:52:54;;;;;;;54.70;25.20;;;;;;;4.33;100.00;99558.38;135597;1279;22570;-62
2023/02/11 12:55:57;;;;;;;55.70;24.80;;;;;;;4.23;100.00;99545.95;135591;1257;22543;-62
2023/02/11 12:58:59;;;;;;;55.00;24.50;;;;;;;4.11;100.00;99587.98;135591;1279;24504;-62
2023/02/11 13:02:02;;;;;;;57.30;25.20;;;;;;;4.13;100.00;99570.61;135563;1279;22582;-63
2023/02/11 13:05:04;;;;;;;53.20;23.50;;;;;;;4.24;100.00;99571.23;135610;1261;22655;-63
2023/02/11 13:08:06;;;;;;;51.10;21.20;;;;;;;4.21;100.00;99559.70;135584;1279;22539;-62
2023/02/11 13:11:10;;;;;;;56.20;23.50;;;;;;;4.25;100.00;99564.63;135560;1279;22570;-64
2023/02/11 13:14:13;;;;;;;51.80;22.80;;;;;;;4.19;100.00;99574.45;135614;1269;22551;-63
2023/02/11 13:17:16;;;;;;;51.40;22.70;;;;;;;4.14;100.00;99597.42;135623;1279;22560;-63
2023/02/11 13:20:18;;;;;;;55.30;22.60;;;;;;;4.04;100.00;99620.66;135592;1279;22539;-62
2023/02/11 13:23:21;;;;;;;54.20;24.90;;;;;;;4.09;100.00;99623.14;135590;1279;25578;-61
2023/02/11 13:26:23;;;;;;;62.60;26.30;;;;;;;4.10;100.00;99621.73;135551;1279;22546;-62
2023/02/11 13:29:26;;;;;;;57.30;25.10;;;;;;;4.06;100.00;99631.53;135568;1279;22707;-62
2023/02/11 13:32:28;;;;;;;60.70;26.30;;;;;;;4.01;100.00;99611.89;135578;1279;22573;-65
2023/02/11 13:35:31;;;;;;;52.00;22.30;;;;;;;4.13;100.00;99622.89;135593;1277;22547;-66
2023/02/11 13:38:33;;;;;;;63.00;28.00;;;;;;;4.19;100.00;99622.05;135564;1279;22547;-63
2023/02/11 13:41:36;;;;;;;58.50;27.00;;;;;;;4.32;100.00;99607.75;135571;1279;22566;-61
2023/02/11 13:44:38;;;;;;;59.50;26.20;;;;;;;4.31;100.00;99599.10;135545;1261;22672;-62
2023/02/11 13:47:41;;;;;;;;;;;;;;;4.38;100.00;99574.00;135568;1279;22520;-60
2023/02/11 13:50:43;;;;;;;53.70;23.80;;;;;;;4.41;100.00;99573.41;135589;1267;21753;-62
2023/02/11 13:53:45;;;;;;;54.10;22.50;;;;;;;4.35;100.00;99588.45;135541;1279;22575;-62
2023/02/11 13:56:48;;;;;;;58.00;25.20;;;;;;;4.34;100.00;99590.90;135582;1270;22547;-62
2023/02/11 13:59:50;;;;;;;51.40;23.00;;;;;;;4.30;100.00;99599.30;135562;1279;22545;-62
2023/02/11 14:09:41;;;;;;;55.40;23.50;;;;;;;4.28;100.00;99615.64;135591;1279;22543;-64
2023/02/11 14:12:44;;;;;;;57.30;25.30;;;;;;;4.24;100.00;99610.36;135571;1279;22531;-65